sensor_id;sensor_type;location;lat;lon;timestamp;P1;durP1;ratioP1;P2;durP2;ratioP2
58466;SDS011;44255;49.244;7.726;2023-04-24T03:30:20;3.88;;;2.65;;
58466;SDS011;44255;49.244;7.726;2023-04-24T03:32:45;3.67;;;2.53;;
58466;SDS011;44255;49.244;7.726;2023-04-24T03:35:11;4.70;;;3.70;;
58466;SDS011;44255;49.244;7.726;2023-04-24T03:37:36;4.45;;;3.53;;
58466;SDS011;44255;49.244;7.726;2023-04-24T03:40:02;5.23;;;3.17;;
58466;SDS011;44255;49.244;7.726;2023-04-24T03:42:27;5.47;;;4.00;;
58466;SDS011;44255;49.244;7.726;2023-04-24T03:44:52;3.53;;;2.77;;
58466;SDS011;44255;49.244;7.726;2023-04-24T03:47:18;5.60;;;3.63;;
58466;SDS011;44255;49.244;7.726;2023-04-24T03:49:43;3.43;;;2.87;;
58466;SDS011;44255;49.244;7.726;2023-04-24T03:52:08;5.87;;;3.03;;
58466;SDS011;44255;49.244;7.726;2023-04-24T03:54:33;7.50;;;4.00;;
58466;SDS011;44255;49.244;7.726;2023-04-24T03:56:59;5.07;;;3.83;;
58466;SDS011;44255;49.244;7.726;2023-04-24T03:59:24;7.85;;;4.25;;
58466;SDS011;44255;49.244;7.726;2023-04-24T04:01:50;7.77;;;4.70;;
58466;SDS011;44255;49.244;7.726;2023-04-24T04:04:15;7.13;;;4.43;;
58466;SDS011;44255;49.244;7.726;2023-04-24T04:06:40;5.60;;;4.05;;
58466;SDS011;44255;49.244;7.726;2023-04-24T04:09:06;9.33;;;4.10;;
58466;SDS011;44255;49.244;7.726;2023-04-24T04:11:32;5.28;;;3.67;;
58466;SDS011;44255;49.244;7.726;2023-04-24T04:13:57;3.70;;;2.90;;
58466;SDS011;44255;49.244;7.726;2023-04-24T04:16:22;4.30;;;3.57;;
58466;SDS011;44255;49.244;7.726;2023-04-24T04:18:48;6.18;;;4.05;;
58466;SDS011;44255;49.244;7.726;2023-04-24T04:21:13;7.40;;;4.15;;
58466;SDS011;44255;49.244;7.726;2023-04-24T04:23:39;4.33;;;3.50;;
58466;SDS011;44255;49.244;7.726;2023-04-24T04:26:05;5.82;;;4.05;;
58466;SDS011;44255;49.244;7.726;2023-04-24T04:28:30;7.07;;;5.45;;
58466;SDS011;44255;49.244;7.726;2023-04-24T04:30:56;6.57;;;4.55;;
58466;SDS011;44255;49.244;7.726;2023-04-24T04:33:22;9.45;;;4.40;;
58466;SDS011;44255;49.244;7.726;2023-04-24T04:38:14;8.70;;;4.63;;
58466;SDS011;44255;49.244;7.726;2023-04-24T04:40:41;6.05;;;3.97;;
58466;SDS011;44255;49.244;7.726;2023-04-24T04:43:07;7.45;;;4.55;;
58466;SDS011;44255;49.244;7.726;2023-04-24T04:45:32;8.60;;;5.72;;
58466;SDS011;44255;49.244;7.726;2023-04-24T04:47:59;8.27;;;4.55;;
58466;SDS011;44255;49.244;7.726;2023-04-24T04:50:25;8.15;;;5.82;;
58466;SDS011;44255;49.244;7.726;2023-04-24T04:52:51;6.47;;;5.05;;
58466;SDS011;44255;49.244;7.726;2023-04-24T04:55:17;7.68;;;4.70;;
58466;SDS011;44255;49.244;7.726;2023-04-24T05:00:08;8.13;;;4.60;;
58466;SDS011;44255;49.244;7.726;2023-04-24T05:02:35;6.28;;;4.38;;
58466;SDS011;44255;49.244;7.726;2023-04-24T05:05:00;9.63;;;5.67;;
58466;SDS011;44255;49.244;7.726;2023-04-24T05:07:25;7.87;;;4.50;;
58466;SDS011;44255;49.244;7.726;2023-04-24T05:09:51;7.83;;;5.70;;
58466;SDS011;44255;49.244;7.726;2023-04-24T05:12:17;5.38;;;3.65;;
58466;SDS011;44255;49.244;7.726;2023-04-24T05:14:42;6.43;;;4.30;;
58466;SDS011;44255;49.244;7.726;2023-04-24T05:17:07;5.83;;;4.10;;
58466;SDS011;44255;49.244;7.726;2023-04-24T05:19:33;8.37;;;4.20;;
58466;SDS011;44255;49.244;7.726;2023-04-24T05:22:00;8.43;;;4.63;;
58466;SDS011;44255;49.244;7.726;2023-04-24T05:24:28;5.93;;;3.55;;
58466;SDS011;44255;49.244;7.726;2023-04-24T05:26:53;7.70;;;5.03;;
58466;SDS011;44255;49.244;7.726;2023-04-24T05:29:18;6.53;;;4.20;;
58466;SDS011;44255;49.244;7.726;2023-04-24T05:31:44;7.97;;;4.35;;
58466;SDS011;44255;49.244;7.726;2023-04-24T05:34:09;6.70;;;4.35;;
58466;SDS011;44255;49.244;7.726;2023-04-24T05:36:35;9.50;;;5.90;;
58466;SDS011;44255;49.244;7.726;2023-04-24T05:39:00;8.93;;;4.30;;
58466;SDS011;44255;49.244;7.726;2023-04-24T05:41:25;5.70;;;4.50;;
58466;SDS011;44255;49.244;7.726;2023-04-24T05:43:50;8.80;;;6.23;;
58466;SDS011;44255;49.244;7.726;2023-04-24T05:46:16;7.10;;;4.50;;
58466;SDS011;44255;49.244;7.726;2023-04-24T05:48:41;4.97;;;4.07;;
58466;SDS011;44255;49.244;7.726;2023-04-24T05:51:06;3.40;;;2.33;;
58466;SDS011;44255;49.244;7.726;2023-04-24T05:53:31;3.40;;;2.20;;
58466;SDS011;44255;49.244;7.726;2023-04-24T05:55:57;1.67;;;1.50;;
58466;SDS011;44255;49.244;7.726;2023-04-24T05:58:22;2.87;;;2.03;;
58466;SDS011;44255;49.244;7.726;2023-04-24T06:00:47;3.17;;;2.10;;
58466;SDS011;44255;49.244;7.726;2023-04-24T06:03:12;4.10;;;2.30;;
58466;SDS011;44255;49.244;7.726;2023-04-24T06:05:38;4.07;;;2.53;;
58466;SDS011;44255;49.244;7.726;2023-04-24T06:08:03;4.78;;;3.25;;
58466;SDS011;44255;49.244;7.726;2023-04-24T06:10:29;4.60;;;2.97;;
58466;SDS011;44255;49.244;7.726;2023-04-24T06:12:54;5.17;;;3.23;;
58466;SDS011;44255;49.244;7.726;2023-04-24T06:15:25;7.70;;;3.63;;
58466;SDS011;44255;49.244;7.726;2023-04-24T06:17:50;5.90;;;4.07;;
58466;SDS011;44255;49.244;7.726;2023-04-24T06:20:15;3.97;;;2.83;;
58466;SDS011;44255;49.244;7.726;2023-04-24T06:22:40;5.63;;;3.37;;
58466;SDS011;44255;49.244;7.726;2023-04-24T06:25:06;10.23;;;3.63;;
58466;SDS011;44255;49.244;7.726;2023-04-24T06:27:32;5.70;;;3.65;;
58466;SDS011;44255;49.244;7.726;2023-04-24T06:29:57;6.35;;;3.30;;
58466;SDS011;44255;49.244;7.726;2023-04-24T06:32:23;5.23;;;3.23;;
58466;SDS011;44255;49.244;7.726;2023-04-24T06:34:49;5.85;;;3.65;;
58466;SDS011;44255;49.244;7.726;2023-04-24T06:37:16;10.10;;;4.25;;
58466;SDS011;44255;49.244;7.726;2023-04-24T06:39:41;8.82;;;3.95;;
58466;SDS011;44255;49.244;7.726;2023-04-24T06:42:07;6.38;;;4.25;;
58466;SDS011;44255;49.244;7.726;2023-04-24T06:44:34;7.50;;;4.07;;
58466;SDS011;44255;49.244;7.726;2023-04-24T06:47:05;6.25;;;4.18;;
58466;SDS011;44255;49.244;7.726;2023-04-24T06:49:30;8.40;;;5.50;;
58466;SDS011;44255;49.244;7.726;2023-04-24T06:51:55;7.37;;;3.40;;
58466;SDS011;44255;49.244;7.726;2023-04-24T06:54:21;7.47;;;4.07;;
58466;SDS011;44255;49.244;7.726;2023-04-24T06:56:46;12.30;;;4.43;;
58466;SDS011;44255;49.244;7.726;2023-04-24T07:01:37;6.15;;;4.03;;
58466;SDS011;44255;49.244;7.726;2023-04-24T07:04:03;8.00;;;3.90;;
58466;SDS011;44255;49.244;7.726;2023-04-24T07:06:28;7.07;;;4.47;;
58466;SDS011;44255;49.244;7.726;2023-04-24T07:08:55;7.43;;;4.03;;
58466;SDS011;44255;49.244;7.726;2023-04-24T07:13:47;6.88;;;3.85;;
58466;SDS011;44255;49.244;7.726;2023-04-24T07:16:12;5.67;;;3.93;;
58466;SDS011;44255;49.244;7.726;2023-04-24T07:18:37;6.93;;;3.83;;
58466;SDS011;44255;49.244;7.726;2023-04-24T07:21:04;4.43;;;3.35;;
58466;SDS011;44255;49.244;7.726;2023-04-24T07:23:29;5.45;;;4.07;;
58466;SDS011;44255;49.244;7.726;2023-04-24T07:28:21;4.82;;;3.40;;
58466;SDS011;44255;49.244;7.726;2023-04-24T07:30:46;6.40;;;3.87;;
58466;SDS011;44255;49.244;7.726;2023-04-24T07:33:11;6.03;;;3.30;;
58466;SDS011;44255;49.244;7.726;2023-04-24T07:38:03;5.03;;;3.00;;
58466;SDS011;44255;49.244;7.726;2023-04-24T07:40:28;7.00;;;3.40;;
58466;SDS011;44255;49.244;7.726;2023-04-24T07:42:53;3.77;;;3.37;;
58466;SDS011;44255;49.244;7.726;2023-04-24T07:45:19;4.87;;;3.50;;
58466;SDS011;44255;49.244;7.726;2023-04-24T07:47:44;5.20;;;3.30;;
58466;SDS011;44255;49.244;7.726;2023-04-24T07:50:10;7.05;;;2.88;;
58466;SDS011;44255;49.244;7.726;2023-04-24T07:52:37;4.75;;;2.80;;
58466;SDS011;44255;49.244;7.726;2023-04-24T07:55:02;6.33;;;3.00;;
58466;SDS011;44255;49.244;7.726;2023-04-24T07:57:27;5.40;;;2.53;;
58466;SDS011;44255;49.244;7.726;2023-04-24T07:59:53;3.22;;;2.67;;
58466;SDS011;44255;49.244;7.726;2023-04-24T08:02:18;2.43;;;2.20;;
58466;SDS011;44255;49.244;7.726;2023-04-24T08:04:43;4.23;;;2.50;;
58466;SDS011;44255;49.244;7.726;2023-04-24T08:07:09;8.03;;;2.80;;
58466;SDS011;44255;49.244;7.726;2023-04-24T08:09:34;3.17;;;2.57;;
58466;SDS011;44255;49.244;7.726;2023-04-24T08:11:59;5.30;;;2.80;;
58466;SDS011;44255;49.244;7.726;2023-04-24T08:15:19;5.20;;;2.60;;
58466;SDS011;44255;49.244;7.726;2023-04-24T08:17:45;7.27;;;2.57;;
58466;SDS011;44255;49.244;7.726;2023-04-24T08:20:10;4.63;;;3.43;;
58466;SDS011;44255;49.244;7.726;2023-04-24T08:22:39;4.90;;;2.88;;
58466;SDS011;44255;49.244;7.726;2023-04-24T08:25:05;5.50;;;3.03;;
58466;SDS011;44255;49.244;7.726;2023-04-24T08:27:31;5.25;;;3.05;;
58466;SDS011;44255;49.244;7.726;2023-04-24T08:29:56;5.60;;;3.42;;
58466;SDS011;44255;49.244;7.726;2023-04-24T08:32:22;5.85;;;3.13;;
58466;SDS011;44255;49.244;7.726;2023-04-24T08:34:47;4.77;;;3.17;;
58466;SDS011;44255;49.244;7.726;2023-04-24T08:37:12;6.70;;;3.77;;
58466;SDS011;44255;49.244;7.726;2023-04-24T08:39:38;4.43;;;3.63;;
58466;SDS011;44255;49.244;7.726;2023-04-24T08:42:04;8.67;;;4.03;;
58466;SDS011;44255;49.244;7.726;2023-04-24T08:44:32;4.65;;;3.42;;
58466;SDS011;44255;49.244;7.726;2023-04-24T08:49:24;4.43;;;3.05;;
58466;SDS011;44255;49.244;7.726;2023-04-24T08:51:50;5.55;;;4.18;;
58466;SDS011;44255;49.244;7.726;2023-04-24T08:54:18;6.68;;;3.70;;
58466;SDS011;44255;49.244;7.726;2023-04-24T08:56:44;6.15;;;4.53;;
58466;SDS011;44255;49.244;7.726;2023-04-24T08:59:12;6.63;;;3.33;;
58466;SDS011;44255;49.244;7.726;2023-04-24T09:01:38;7.97;;;4.32;;
58466;SDS011;44255;49.244;7.726;2023-04-24T09:04:05;6.80;;;4.32;;
58466;SDS011;44255;49.244;7.726;2023-04-24T09:06:34;7.07;;;4.80;;
58466;SDS011;44255;49.244;7.726;2023-04-24T09:09:00;7.05;;;4.63;;
58466;SDS011;44255;49.244;7.726;2023-04-24T09:11:26;7.90;;;4.18;;
58466;SDS011;44255;49.244;7.726;2023-04-24T09:13:53;7.55;;;4.85;;
58466;SDS011;44255;49.244;7.726;2023-04-24T09:16:19;8.90;;;5.30;;
58466;SDS011;44255;49.244;7.726;2023-04-24T09:18:45;8.80;;;4.93;;
58466;SDS011;44255;49.244;7.726;2023-04-24T09:21:11;11.23;;;5.30;;
58466;SDS011;44255;49.244;7.726;2023-04-24T09:23:36;8.50;;;5.55;;
58466;SDS011;44255;49.244;7.726;2023-04-24T09:26:02;9.10;;;5.53;;
58466;SDS011;44255;49.244;7.726;2023-04-24T09:28:32;9.00;;;6.47;;
58466;SDS011;44255;49.244;7.726;2023-04-24T09:33:38;9.77;;;5.82;;
58466;SDS011;44255;49.244;7.726;2023-04-24T09:36:03;8.88;;;4.70;;
58466;SDS011;44255;49.244;7.726;2023-04-24T09:38:34;11.00;;;6.20;;
58466;SDS011;44255;49.244;7.726;2023-04-24T09:41:02;13.60;;;6.78;;
58466;SDS011;44255;49.244;7.726;2023-04-24T09:43:29;9.98;;;5.53;;
58466;SDS011;44255;49.244;7.726;2023-04-24T09:45:55;9.18;;;5.90;;
58466;SDS011;44255;49.244;7.726;2023-04-24T09:48:31;9.07;;;5.93;;
58466;SDS011;44255;49.244;7.726;2023-04-24T09:50:57;11.73;;;6.40;;
58466;SDS011;44255;49.244;7.726;2023-04-24T09:53:24;13.02;;;7.85;;
58466;SDS011;44255;49.244;7.726;2023-04-24T09:55:49;10.38;;;6.72;;
58466;SDS011;44255;49.244;7.726;2023-04-24T09:58:15;11.50;;;7.18;;
58466;SDS011;44255;49.244;7.726;2023-04-24T10:00:40;10.73;;;6.53;;
58466;SDS011;44255;49.244;7.726;2023-04-24T10:03:06;11.68;;;7.65;;
58466;SDS011;44255;49.244;7.726;2023-04-24T10:05:32;9.90;;;6.33;;
58466;SDS011;44255;49.244;7.726;2023-04-24T10:08:05;15.05;;;6.60;;
58466;SDS011;44255;49.244;7.726;2023-04-24T10:10:33;11.55;;;6.60;;
58466;SDS011;44255;49.244;7.726;2023-04-24T10:13:00;9.40;;;6.43;;
58466;SDS011;44255;49.244;7.726;2023-04-24T10:15:26;9.90;;;6.68;;
58466;SDS011;44255;49.244;7.726;2023-04-24T10:17:52;13.85;;;7.75;;
58466;SDS011;44255;49.244;7.726;2023-04-24T10:20:21;12.70;;;7.40;;
58466;SDS011;44255;49.244;7.726;2023-04-24T10:22:49;12.63;;;8.70;;
58466;SDS011;44255;49.244;7.726;2023-04-24T10:25:22;12.52;;;7.20;;
58466;SDS011;44255;49.244;7.726;2023-04-24T10:27:49;12.48;;;7.72;;
58466;SDS011;44255;49.244;7.726;2023-04-24T10:30:16;15.43;;;9.35;;
58466;SDS011;44255;49.244;7.726;2023-04-24T10:32:43;13.02;;;7.25;;
58466;SDS011;44255;49.244;7.726;2023-04-24T10:35:08;14.18;;;8.40;;
58466;SDS011;44255;49.244;7.726;2023-04-24T10:37:36;12.48;;;7.05;;
58466;SDS011;44255;49.244;7.726;2023-04-24T10:40:03;12.27;;;8.38;;
58466;SDS011;44255;49.244;7.726;2023-04-24T10:42:30;12.63;;;8.20;;
58466;SDS011;44255;49.244;7.726;2023-04-24T10:44:55;11.98;;;7.25;;
58466;SDS011;44255;49.244;7.726;2023-04-24T10:47:22;17.30;;;8.88;;
58466;SDS011;44255;49.244;7.726;2023-04-24T10:49:48;12.33;;;6.57;;
58466;SDS011;44255;49.244;7.726;2023-04-24T10:52:16;15.45;;;7.05;;
58466;SDS011;44255;49.244;7.726;2023-04-24T11:00:33;13.43;;;7.53;;
58466;SDS011;44255;49.244;7.726;2023-04-24T11:02:40;11.30;;;6.57;;
58466;SDS011;44255;49.244;7.726;2023-04-24T11:05:14;10.63;;;8.00;;
58466;SDS011;44255;49.244;7.726;2023-04-24T11:08:26;14.10;;;7.53;;
58466;SDS011;44255;49.244;7.726;2023-04-24T11:10:39;10.98;;;6.75;;
58466;SDS011;44255;49.244;7.726;2023-04-24T11:13:20;12.48;;;6.35;;
58466;SDS011;44255;49.244;7.726;2023-04-24T11:16:06;11.02;;;5.65;;
58466;SDS011;44255;49.244;7.726;2023-04-24T11:18:51;8.13;;;5.65;;
58466;SDS011;44255;49.244;7.726;2023-04-24T11:21:19;8.57;;;6.15;;
58466;SDS011;44255;49.244;7.726;2023-04-24T11:23:45;8.98;;;7.10;;
58466;SDS011;44255;49.244;7.726;2023-04-24T11:26:19;9.82;;;5.90;;
58466;SDS011;44255;49.244;7.726;2023-04-24T11:28:49;11.10;;;6.35;;
58466;SDS011;44255;49.244;7.726;2023-04-24T11:31:37;9.93;;;6.70;;
58466;SDS011;44255;49.244;7.726;2023-04-24T11:34:08;9.20;;;5.43;;
58466;SDS011;44255;49.244;7.726;2023-04-24T11:36:35;9.85;;;6.20;;
58466;SDS011;44255;49.244;7.726;2023-04-24T11:39:00;10.90;;;6.47;;
58466;SDS011;44255;49.244;7.726;2023-04-24T11:41:26;7.57;;;5.13;;
58466;SDS011;44255;49.244;7.726;2023-04-24T11:43:53;10.52;;;6.28;;
58466;SDS011;44255;49.244;7.726;2023-04-24T11:46:20;7.88;;;5.85;;
58466;SDS011;44255;49.244;7.726;2023-04-24T11:48:46;9.10;;;6.20;;
58466;SDS011;44255;49.244;7.726;2023-04-24T11:51:12;11.00;;;6.53;;
58466;SDS011;44255;49.244;7.726;2023-04-24T11:53:38;8.18;;;5.90;;
58466;SDS011;44255;49.244;7.726;2023-04-24T11:56:04;7.13;;;5.73;;
58466;SDS011;44255;49.244;7.726;2023-04-24T11:58:34;6.95;;;5.43;;
58466;SDS011;44255;49.244;7.726;2023-04-24T12:01:00;9.43;;;5.97;;
58466;SDS011;44255;49.244;7.726;2023-04-24T12:03:26;11.27;;;6.03;;
58466;SDS011;44255;49.244;7.726;2023-04-24T12:05:51;7.72;;;4.97;;
58466;SDS011;44255;49.244;7.726;2023-04-24T12:08:35;8.27;;;5.57;;
58466;SDS011;44255;49.244;7.726;2023-04-24T12:11:01;12.85;;;5.15;;
58466;SDS011;44255;49.244;7.726;2023-04-24T12:13:28;7.50;;;5.13;;
58466;SDS011;44255;49.244;7.726;2023-04-24T12:15:53;8.45;;;5.43;;
58466;SDS011;44255;49.244;7.726;2023-04-24T12:18:18;8.13;;;5.87;;
58466;SDS011;44255;49.244;7.726;2023-04-24T12:20:47;9.30;;;5.10;;
58466;SDS011;44255;49.244;7.726;2023-04-24T12:23:13;8.77;;;4.90;;
58466;SDS011;44255;49.244;7.726;2023-04-24T12:25:38;7.47;;;4.70;;
58466;SDS011;44255;49.244;7.726;2023-04-24T12:30:29;10.23;;;4.97;;
58466;SDS011;44255;49.244;7.726;2023-04-24T12:32:57;9.05;;;5.00;;
58466;SDS011;44255;49.244;7.726;2023-04-24T12:35:25;6.78;;;4.47;;
58466;SDS011;44255;49.244;7.726;2023-04-24T12:37:51;6.78;;;4.50;;
58466;SDS011;44255;49.244;7.726;2023-04-24T12:40:17;9.83;;;4.97;;
58466;SDS011;44255;49.244;7.726;2023-04-24T12:42:45;8.75;;;5.18;;
58466;SDS011;44255;49.244;7.726;2023-04-24T12:45:12;7.57;;;5.25;;
58466;SDS011;44255;49.244;7.726;2023-04-24T12:47:39;6.90;;;4.55;;
58466;SDS011;44255;49.244;7.726;2023-04-24T12:50:05;10.60;;;5.30;;
58466;SDS011;44255;49.244;7.726;2023-04-24T12:52:32;8.23;;;5.10;;
58466;SDS011;44255;49.244;7.726;2023-04-24T12:54:58;8.70;;;5.63;;
58466;SDS011;44255;49.244;7.726;2023-04-24T12:57:24;8.95;;;5.65;;
58466;SDS011;44255;49.244;7.726;2023-04-24T12:59:54;8.63;;;5.82;;
58466;SDS011;44255;49.244;7.726;2023-04-24T13:02:21;9.20;;;5.45;;
58466;SDS011;44255;49.244;7.726;2023-04-24T13:04:50;8.52;;;5.40;;
58466;SDS011;44255;49.244;7.726;2023-04-24T13:07:16;8.43;;;5.35;;
58466;SDS011;44255;49.244;7.726;2023-04-24T13:09:42;7.10;;;4.85;;
58466;SDS011;44255;49.244;7.726;2023-04-24T13:14:34;6.45;;;4.80;;
58466;SDS011;44255;49.244;7.726;2023-04-24T13:17:00;7.30;;;4.68;;
58466;SDS011;44255;49.244;7.726;2023-04-24T13:19:26;9.50;;;4.72;;
58466;SDS011;44255;49.244;7.726;2023-04-24T13:24:17;8.15;;;5.47;;
58466;SDS011;44255;49.244;7.726;2023-04-24T13:26:43;8.17;;;5.47;;
58466;SDS011;44255;49.244;7.726;2023-04-24T13:29:08;5.47;;;4.40;;
58466;SDS011;44255;49.244;7.726;2023-04-24T13:31:34;6.63;;;4.90;;
58466;SDS011;44255;49.244;7.726;2023-04-24T13:33:59;6.73;;;5.00;;
58466;SDS011;44255;49.244;7.726;2023-04-24T13:36:24;7.03;;;5.20;;
58466;SDS011;44255;49.244;7.726;2023-04-24T13:38:50;8.38;;;4.80;;
58466;SDS011;44255;49.244;7.726;2023-04-24T13:41:15;8.57;;;4.83;;
58466;SDS011;44255;49.244;7.726;2023-04-24T13:43:41;7.85;;;4.40;;
58466;SDS011;44255;49.244;7.726;2023-04-24T13:46:07;5.88;;;4.30;;
58466;SDS011;44255;49.244;7.726;2023-04-24T13:48:33;7.50;;;4.40;;
58466;SDS011;44255;49.244;7.726;2023-04-24T13:50:58;5.90;;;4.37;;
58466;SDS011;44255;49.244;7.726;2023-04-24T13:53:23;6.37;;;4.70;;
58466;SDS011;44255;49.244;7.726;2023-04-24T13:55:48;7.43;;;4.53;;
58466;SDS011;44255;49.244;7.726;2023-04-24T13:58:14;10.65;;;5.55;;
58466;SDS011;44255;49.244;7.726;2023-04-24T14:00:40;6.47;;;4.65;;
58466;SDS011;44255;49.244;7.726;2023-04-24T14:03:05;11.18;;;6.90;;
58466;SDS011;44255;49.244;7.726;2023-04-24T14:05:30;6.33;;;4.10;;
58466;SDS011;44255;49.244;7.726;2023-04-24T14:07:56;10.50;;;6.35;;
58466;SDS011;44255;49.244;7.726;2023-04-24T14:10:21;10.40;;;5.60;;
58466;SDS011;44255;49.244;7.726;2023-04-24T14:12:47;8.47;;;5.27;;
58466;SDS011;44255;49.244;7.726;2023-04-24T14:15:12;13.45;;;5.55;;
58466;SDS011;44255;49.244;7.726;2023-04-24T14:17:38;8.93;;;5.50;;
58466;SDS011;44255;49.244;7.726;2023-04-24T14:20:04;7.97;;;6.28;;
58466;SDS011;44255;49.244;7.726;2023-04-24T14:22:29;12.52;;;8.15;;
58466;SDS011;44255;49.244;7.726;2023-04-24T14:24:55;7.63;;;5.35;;
58466;SDS011;44255;49.244;7.726;2023-04-24T14:27:20;8.97;;;5.33;;
58466;SDS011;44255;49.244;7.726;2023-04-24T14:29:45;9.50;;;6.00;;
58466;SDS011;44255;49.244;7.726;2023-04-24T14:32:11;13.77;;;7.07;;
58466;SDS011;44255;49.244;7.726;2023-04-24T14:34:36;12.07;;;6.87;;
58466;SDS011;44255;49.244;7.726;2023-04-24T14:37:01;8.83;;;6.27;;
58466;SDS011;44255;49.244;7.726;2023-04-24T14:39:27;8.27;;;5.22;;
58466;SDS011;44255;49.244;7.726;2023-04-24T14:41:53;7.85;;;4.30;;
58466;SDS011;44255;49.244;7.726;2023-04-24T14:44:18;7.70;;;5.03;;
58466;SDS011;44255;49.244;7.726;2023-04-24T14:46:43;8.47;;;5.53;;
58466;SDS011;44255;49.244;7.726;2023-04-24T14:49:09;8.57;;;5.60;;
58466;SDS011;44255;49.244;7.726;2023-04-24T14:51:35;8.63;;;6.10;;
58466;SDS011;44255;49.244;7.726;2023-04-24T14:54:01;7.18;;;5.38;;
58466;SDS011;44255;49.244;7.726;2023-04-24T14:56:26;7.23;;;4.90;;
58466;SDS011;44255;49.244;7.726;2023-04-24T14:58:51;12.10;;;4.93;;
58466;SDS011;44255;49.244;7.726;2023-04-24T15:01:17;9.90;;;6.03;;
58466;SDS011;44255;49.244;7.726;2023-04-24T15:03:42;8.63;;;5.20;;
58466;SDS011;44255;49.244;7.726;2023-04-24T15:06:08;6.37;;;4.50;;
58466;SDS011;44255;49.244;7.726;2023-04-24T15:08:33;5.50;;;4.10;;
58466;SDS011;44255;49.244;7.726;2023-04-24T15:10:58;8.70;;;4.33;;
58466;SDS011;44255;49.244;7.726;2023-04-24T15:13:23;8.53;;;4.30;;
58466;SDS011;44255;49.244;7.726;2023-04-24T15:15:49;7.07;;;4.57;;
58466;SDS011;44255;49.244;7.726;2023-04-24T15:18:14;7.40;;;4.30;;
58466;SDS011;44255;49.244;7.726;2023-04-24T15:20:39;5.50;;;4.00;;
58466;SDS011;44255;49.244;7.726;2023-04-24T15:25:33;7.18;;;3.75;;
58466;SDS011;44255;49.244;7.726;2023-04-24T15:27:58;8.40;;;4.20;;
58466;SDS011;44255;49.244;7.726;2023-04-24T15:30:24;8.35;;;4.45;;
58466;SDS011;44255;49.244;7.726;2023-04-24T15:32:49;5.75;;;4.00;;
58466;SDS011;44255;49.244;7.726;2023-04-24T15:35:15;6.70;;;4.30;;
58466;SDS011;44255;49.244;7.726;2023-04-24T15:37:41;5.10;;;4.25;;
58466;SDS011;44255;49.244;7.726;2023-04-24T15:40:07;7.10;;;4.32;;
58466;SDS011;44255;49.244;7.726;2023-04-24T15:42:33;7.18;;;4.68;;
58466;SDS011;44255;49.244;7.726;2023-04-24T15:44:59;6.95;;;4.93;;
58466;SDS011;44255;49.244;7.726;2023-04-24T15:47:24;7.30;;;4.50;;
58466;SDS011;44255;49.244;7.726;2023-04-24T15:49:51;5.63;;;4.13;;
58466;SDS011;44255;49.244;7.726;2023-04-24T15:52:17;6.63;;;4.20;;
58466;SDS011;44255;49.244;7.726;2023-04-24T15:54:42;6.70;;;4.53;;
58466;SDS011;44255;49.244;7.726;2023-04-24T15:57:07;6.40;;;4.03;;
58466;SDS011;44255;49.244;7.726;2023-04-24T15:59:33;7.37;;;4.23;;
58466;SDS011;44255;49.244;7.726;2023-04-24T16:01:58;8.23;;;4.20;;
58466;SDS011;44255;49.244;7.726;2023-04-24T16:04:24;7.13;;;4.18;;
58466;SDS011;44255;49.244;7.726;2023-04-24T16:06:49;6.73;;;4.27;;
58466;SDS011;44255;49.244;7.726;2023-04-24T16:09:14;7.13;;;4.20;;
58466;SDS011;44255;49.244;7.726;2023-04-24T16:11:40;7.33;;;4.27;;
58466;SDS011;44255;49.244;7.726;2023-04-24T16:14:05;5.23;;;4.33;;
58466;SDS011;44255;49.244;7.726;2023-04-24T16:16:30;6.73;;;4.00;;
58466;SDS011;44255;49.244;7.726;2023-04-24T16:18:56;8.77;;;4.83;;
58466;SDS011;44255;49.244;7.726;2023-04-24T16:21:21;8.17;;;5.63;;
58466;SDS011;44255;49.244;7.726;2023-04-24T16:23:46;5.47;;;4.90;;
58466;SDS011;44255;49.244;7.726;2023-04-24T16:26:12;7.63;;;4.40;;
58466;SDS011;44255;49.244;7.726;2023-04-24T16:28:37;7.32;;;4.47;;
58466;SDS011;44255;49.244;7.726;2023-04-24T16:31:03;7.78;;;4.43;;
58466;SDS011;44255;49.244;7.726;2023-04-24T16:33:29;7.43;;;4.50;;
58466;SDS011;44255;49.244;7.726;2023-04-24T16:38:21;4.85;;;3.20;;
58466;SDS011;44255;49.244;7.726;2023-04-24T16:40:48;4.30;;;3.25;;
58466;SDS011;44255;49.244;7.726;2023-04-24T16:43:13;3.17;;;2.30;;
58466;SDS011;44255;49.244;7.726;2023-04-24T16:45:38;3.80;;;2.50;;
58466;SDS011;44255;49.244;7.726;2023-04-24T16:48:04;4.50;;;3.10;;
58466;SDS011;44255;49.244;7.726;2023-04-24T16:50:29;3.70;;;2.50;;
58466;SDS011;44255;49.244;7.726;2023-04-24T16:52:55;3.33;;;2.40;;
58466;SDS011;44255;49.244;7.726;2023-04-24T16:55:20;4.17;;;2.40;;
58466;SDS011;44255;49.244;7.726;2023-04-24T16:57:45;3.90;;;2.53;;
58466;SDS011;44255;49.244;7.726;2023-04-24T17:00:11;4.07;;;2.63;;
58466;SDS011;44255;49.244;7.726;2023-04-24T17:02:36;4.38;;;2.65;;
58466;SDS011;44255;49.244;7.726;2023-04-24T17:05:02;3.93;;;2.63;;
58466;SDS011;44255;49.244;7.726;2023-04-24T17:07:27;5.63;;;4.67;;
58466;SDS011;44255;49.244;7.726;2023-04-24T17:09:53;5.05;;;3.75;;
58466;SDS011;44255;49.244;7.726;2023-04-24T17:12:18;5.10;;;4.07;;
58466;SDS011;44255;49.244;7.726;2023-04-24T17:14:43;6.27;;;4.40;;
58466;SDS011;44255;49.244;7.726;2023-04-24T17:17:09;7.60;;;4.43;;
58466;SDS011;44255;49.244;7.726;2023-04-24T17:19:34;3.97;;;3.50;;
58466;SDS011;44255;49.244;7.726;2023-04-24T17:21:59;5.17;;;3.63;;
58466;SDS011;44255;49.244;7.726;2023-04-24T17:24:25;4.83;;;2.33;;
58466;SDS011;44255;49.244;7.726;2023-04-24T17:26:50;3.47;;;2.42;;
58466;SDS011;44255;49.244;7.726;2023-04-24T17:29:15;5.23;;;2.60;;
58466;SDS011;44255;49.244;7.726;2023-04-24T17:31:41;3.27;;;2.77;;
58466;SDS011;44255;49.244;7.726;2023-04-24T17:34:06;4.73;;;3.00;;
58466;SDS011;44255;49.244;7.726;2023-04-24T17:36:32;3.80;;;2.83;;
58466;SDS011;44255;49.244;7.726;2023-04-24T17:38:57;4.50;;;3.80;;
58466;SDS011;44255;49.244;7.726;2023-04-24T17:41:23;4.10;;;3.50;;
58466;SDS011;44255;49.244;7.726;2023-04-24T17:43:48;5.67;;;3.63;;
58466;SDS011;44255;49.244;7.726;2023-04-24T17:46:13;3.37;;;2.97;;
58466;SDS011;44255;49.244;7.726;2023-04-24T17:48:39;3.77;;;3.30;;
58466;SDS011;44255;49.244;7.726;2023-04-24T17:51:04;5.75;;;4.38;;
58466;SDS011;44255;49.244;7.726;2023-04-24T17:53:29;5.40;;;3.40;;
58466;SDS011;44255;49.244;7.726;2023-04-24T17:55:55;7.90;;;4.33;;
58466;SDS011;44255;49.244;7.726;2023-04-24T17:58:23;6.63;;;3.90;;
58466;SDS011;44255;49.244;7.726;2023-04-24T18:00:48;3.30;;;2.60;;
58466;SDS011;44255;49.244;7.726;2023-04-24T18:03:13;5.67;;;3.30;;
58466;SDS011;44255;49.244;7.726;2023-04-24T18:05:39;5.30;;;4.03;;
58466;SDS011;44255;49.244;7.726;2023-04-24T18:08:04;6.23;;;4.53;;
58466;SDS011;44255;49.244;7.726;2023-04-24T18:10:30;7.93;;;4.75;;
58466;SDS011;44255;49.244;7.726;2023-04-24T18:12:57;5.97;;;5.35;;
58466;SDS011;44255;49.244;7.726;2023-04-24T18:15:22;5.20;;;3.90;;
58466;SDS011;44255;49.244;7.726;2023-04-24T18:17:48;4.85;;;3.83;;
58466;SDS011;44255;49.244;7.726;2023-04-24T18:20:14;4.97;;;3.30;;
58466;SDS011;44255;49.244;7.726;2023-04-24T18:22:40;5.63;;;3.10;;
58466;SDS011;44255;49.244;7.726;2023-04-24T18:27:32;4.13;;;2.63;;
58466;SDS011;44255;49.244;7.726;2023-04-24T18:29:57;4.33;;;3.93;;
58466;SDS011;44255;49.244;7.726;2023-04-24T18:32:23;6.22;;;4.05;;
58466;SDS011;44255;49.244;7.726;2023-04-24T18:34:48;6.97;;;3.95;;
58466;SDS011;44255;49.244;7.726;2023-04-24T18:37:14;5.82;;;4.30;;
58466;SDS011;44255;49.244;7.726;2023-04-24T18:39:39;4.93;;;3.88;;
58466;SDS011;44255;49.244;7.726;2023-04-24T18:42:05;5.17;;;4.33;;
58466;SDS011;44255;49.244;7.726;2023-04-24T18:44:30;4.77;;;4.10;;
58466;SDS011;44255;49.244;7.726;2023-04-24T18:46:55;5.13;;;3.33;;
58466;SDS011;44255;49.244;7.726;2023-04-24T18:49:20;3.50;;;3.20;;